Time;durP1;ratioP1;P1;durP2;ratioP2;P2;SDS_P1;SDS_P2;PMS_P1;PMS_P2;Temp;Humidity;BMP_temperature;BMP_pressure;BME280_temperature;BME280_humidity;BME280_pressure;Samples;Min_cycle;Max_cycle;Signal;HPM_P1;HPM_P2
2022/02/06 00:00:28;;;;;;;28.60;23.05;;;;;;;0.05;100.00;99164.66;2089628;28;20262;-75
2022/02/06 00:01:33;;;;;;;35.63;23.92;;;;;;;0.03;100.00;99170.13;2090402;28;20175;-75
2022/02/06 00:02:42;;;;;;;31.40;23.52;;;;;;;0.04;100.00;99176.16;2090129;28;20237;-75
2022/02/06 00:03:46;;;;;;;29.67;23.13;;;;;;;-0.04;100.00;99170.22;2090389;28;20202;-75
2022/02/06 00:04:49;;;;;;;32.53;23.02;;;;;;;-0.02;100.00;99170.78;2089438;28;20210;-75
2022/02/06 00:05:53;;;;;;;31.75;23.52;;;;;;;-0.06;100.00;99166.22;2082006;28;20211;-75
2022/02/06 00:06:54;;;;;;;32.90;23.63;;;;;;;-0.08;100.00;99163.03;2089483;28;20701;-74
2022/02/06 00:07:57;;;;;;;35.65;23.95;;;;;;;-0.13;100.00;99166.31;2089705;28;20538;-75
2022/02/06 00:09:00;;;;;;;37.45;25.33;;;;;;;-0.16;100.00;99166.75;2089662;28;20195;-74
2022/02/06 00:10:03;;;;;;;35.95;24.38;;;;;;;-0.21;100.00;99158.75;2090100;28;20205;-75
2022/02/06 00:11:06;;;;;;;37.50;24.80;;;;;;;-0.22;100.00;99166.84;2090202;28;20194;-74
2022/02/06 00:12:09;;;;;;;33.90;24.50;;;;;;;-0.23;100.00;99160.81;2090016;28;20199;-75
2022/02/06 00:13:13;;;;;;;36.13;24.42;;;;;;;-0.22;100.00;99159.78;2090111;28;20544;-75
2022/02/06 00:14:14;;;;;;;37.83;25.50;;;;;;;-0.22;100.00;99159.78;2089994;28;20237;-74
2022/02/06 00:15:18;;;;;;;32.80;23.23;;;;;;;-0.21;100.00;99156.13;2089463;28;20245;-74
2022/02/06 00:16:19;;;;;;;33.63;23.40;;;;;;;-0.20;100.00;99157.72;2089587;28;20195;-74
2022/02/06 00:17:21;;;;;;;33.83;23.73;;;;;;;-0.17;100.00;99159.94;2089316;28;20246;-74
2022/02/06 00:18:26;;;;;;;31.13;22.58;;;;;;;-0.17;100.00;99159.13;2089718;28;20692;-74
2022/02/06 00:19:29;;;;;;;34.53;22.58;;;;;;;-0.20;100.00;99142.00;2089488;28;20215;-74
2022/02/06 00:20:35;;;;;;;27.10;21.85;;;;;;;-0.19;100.00;99154.09;2090234;28;20199;-74
2022/02/06 00:21:41;;;;;;;28.95;22.33;;;;;;;-0.14;100.00;99150.81;2090289;28;20226;-74
2022/02/06 00:22:48;;;;;;;29.77;21.95;;;;;;;-0.19;100.00;99156.69;2091840;28;20224;-74
2022/02/06 00:23:54;;;;;;;27.77;22.00;;;;;;;-0.22;100.00;99154.53;2091122;28;20294;-74
2022/02/06 00:25:13;;;;;;;27.35;21.30;;;;;;;-0.17;100.00;99148.63;2091206;28;20171;-74
2022/02/06 00:26:25;;;;;;;24.83;20.50;;;;;;;-0.12;100.00;99141.69;2091613;28;20240;-74
2022/02/06 00:27:35;;;;;;;24.80;20.85;;;;;;;-0.08;100.00;99140.22;2090925;28;20253;-75
2022/02/06 00:28:44;;;;;;;25.48;20.52;;;;;;;-0.09;100.00;99141.25;2084185;28;20228;-75
2022/02/06 00:29:53;;;;;;;29.33;20.85;;;;;;;-0.07;100.00;99138.41;2091285;28;20208;-74
2022/02/06 00:31:01;;;;;;;22.73;20.08;;;;;;;-0.05;100.00;99131.91;2091536;28;20249;-74
2022/02/06 00:32:07;;;;;;;23.45;19.40;;;;;;;0.06;100.00;99129.53;2091106;28;20230;-74
2022/02/06 00:33:13;;;;;;;24.60;19.55;;;;;;;0.10;100.00;99133.31;2083625;28;20204;-74
2022/02/06 00:34:43;;;;;;;23.02;19.13;;;;;;;0.12;100.00;99123.38;2090989;28;20634;-74
2022/02/06 00:36:02;;;;;;;24.17;19.33;;;;;;;0.21;100.00;99124.66;2091576;28;20638;-75
2022/02/06 00:38:33;;;;;;;24.95;19.00;;;;;;;0.30;100.00;99123.28;2091470;28;20264;-75
2022/02/06 00:39:38;;;;;;;24.77;19.27;;;;;;;0.30;100.00;99122.47;2091198;28;20218;-74
2022/02/06 00:41:59;;;;;;;19.38;17.48;;;;;;;0.28;100.00;99131.38;2090593;28;20574;-74
2022/02/06 00:43:00;;;;;;;20.23;17.75;;;;;;;0.29;100.00;99121.69;2091445;28;20599;-74
2022/02/06 00:44:04;;;;;;;19.90;17.90;;;;;;;0.30;100.00;99123.28;2091500;28;20188;-74
2022/02/06 00:45:08;;;;;;;20.95;18.73;;;;;;;0.31;100.00;99124.06;2090591;28;20264;-74
2022/02/06 00:46:15;;;;;;;20.35;18.33;;;;;;;0.31;100.00;99114.38;2083035;28;20635;-74
2022/02/06 00:47:17;;;;;;;20.20;18.10;;;;;;;0.33;100.00;99117.56;2090912;28;20753;-74
2022/02/06 00:48:23;;;;;;;19.95;17.80;;;;;;;0.34;100.00;99116.53;2091026;28;20223;-74
2022/02/06 00:49:29;;;;;;;19.58;17.55;;;;;;;0.33;100.00;99117.56;2090866;28;20191;-74
2022/02/06 00:50:32;;;;;;;21.10;17.77;;;;;;;0.31;100.00;99117.00;2091182;28;20256;-74
2022/02/06 00:51:41;;;;;;;21.20;18.50;;;;;;;0.34;100.00;99105.25;2082576;28;20239;-75
2022/02/06 00:53:00;;;;;;;20.05;18.13;;;;;;;0.36;100.00;99111.88;2090888;28;20757;-75
2022/02/06 00:54:03;;;;;;;19.77;17.70;;;;;;;0.35;100.00;99105.03;2091375;28;20737;-75
2022/02/06 00:55:06;;;;;;;20.63;18.52;;;;;;;0.37;100.00;99105.59;2091296;28;20562;-74
2022/02/06 00:56:08;;;;;;;20.90;18.63;;;;;;;0.36;100.00;99108.47;2090957;28;20203;-75
2022/02/06 00:57:09;;;;;;;20.42;17.42;;;;;;;0.38;100.00;99103.78;2082861;28;20218;-74
2022/02/06 00:58:13;;;;;;;19.45;17.55;;;;;;;0.38;100.00;99106.41;2082507;28;20673;-75
2022/02/06 00:59:17;;;;;;;20.27;18.38;;;;;;;0.34;100.00;99105.25;2090917;28;20578;-75
2022/02/06 01:00:21;;;;;;;19.48;17.42;;;;;;;0.34;100.00;99106.03;2091092;28;20203;-75
2022/02/06 01:01:22;;;;;;;20.00;17.98;;;;;;;0.36;100.00;99098.75;2082856;28;20215;-75
2022/02/06 01:02:25;;;;;;;19.33;17.45;;;;;;;0.49;100.00;99095.88;2090729;28;20237;-75
2022/02/06 01:03:28;;;;;;;19.58;17.58;;;;;;;0.47;100.00;99105.03;2091326;28;20286;-74
2022/02/06 01:04:35;;;;;;;19.50;17.48;;;;;;;0.42;100.00;99092.56;2091407;28;20194;-74
2022/02/06 01:05:38;;;;;;;20.52;18.08;;;;;;;0.43;100.00;99085.50;2090634;28;20203;-75
2022/02/06 01:06:41;;;;;;;19.77;18.02;;;;;;;0.38;100.00;99083.59;2090059;28;20225;-75
2022/02/06 01:07:48;;;;;;;19.42;17.50;;;;;;;0.38;100.00;99088.81;2091358;28;20194;-74
2022/02/06 01:08:50;;;;;;;19.35;16.90;;;;;;;0.38;100.00;99080.97;2091253;28;20195;-74
2022/02/06 01:09:53;;;;;;;19.88;17.88;;;;;;;0.40;100.00;99076.28;2091266;28;20187;-74
2022/02/06 01:10:55;;;;;;;19.42;17.63;;;;;;;0.38;100.00;99078.34;2090590;28;20249;-74
2022/02/06 01:11:58;;;;;;;18.90;17.25;;;;;;;0.39;100.00;99079.94;2090872;28;20316;-75
2022/02/06 01:13:14;;;;;;;19.05;17.42;;;;;;;0.33;100.00;99080.03;2091259;28;20191;-75
2022/02/06 01:14:29;;;;;;;19.00;17.05;;;;;;;0.27;100.00;99074.69;2091141;28;20231;-74
2022/02/06 01:15:34;;;;;;;19.35;17.75;;;;;;;0.28;100.00;99086.78;2091447;28;20197;-74
2022/02/06 01:16:39;;;;;;;20.77;18.17;;;;;;;0.31;100.00;99077.66;2091193;28;20215;-74
2022/02/06 01:17:47;;;;;;;19.80;17.83;;;;;;;0.31;100.00;99079.47;2091241;28;20171;-74
2022/02/06 01:18:55;;;;;;;19.23;17.50;;;;;;;0.32;100.00;99078.44;2091328;28;20510;-74
2022/02/06 01:20:03;;;;;;;20.60;18.58;;;;;;;0.29;100.00;99069.22;2091403;28;20548;-76
2022/02/06 01:21:13;;;;;;;20.30;18.30;;;;;;;0.28;100.00;99070.25;2090802;28;20685;-74
2022/02/06 01:22:21;;;;;;;19.05;17.10;;;;;;;0.27;100.00;99072.06;2091394;28;20171;-74
2022/02/06 01:23:30;;;;;;;19.35;17.48;;;;;;;0.29;100.00;99071.84;2091255;28;20190;-76
2022/02/06 01:24:40;;;;;;;19.83;17.83;;;;;;;0.30;100.00;99064.75;2091260;28;20183;-75
2022/02/06 01:25:52;;;;;;;19.83;17.88;;;;;;;0.32;100.00;99073.19;2090501;28;20277;-75
2022/02/06 01:27:05;;;;;;;19.98;18.13;;;;;;;0.28;100.00;99065.78;2090668;28;20198;-75
2022/02/06 01:28:12;;;;;;;18.65;17.02;;;;;;;0.29;100.00;99063.97;2091260;28;20171;-75
2022/02/06 01:29:28;;;;;;;19.25;17.65;;;;;;;0.24;100.00;99050.72;2090735;28;20198;-75
2022/02/06 01:30:41;;;;;;;18.70;16.83;;;;;;;0.25;100.00;99062.81;2084411;28;20711;-75
2022/02/06 01:31:51;;;;;;;18.55;16.75;;;;;;;0.27;100.00;99060.78;2090401;28;20206;-75
2022/02/06 01:32:58;;;;;;;18.73;16.75;;;;;;;0.23;100.00;99052.53;2090614;28;20179;-75
2022/02/06 01:34:02;;;;;;;19.10;17.20;;;;;;;0.25;100.00;99047.88;2091341;28;20175;-75
2022/02/06 01:35:11;;;;;;;19.42;17.38;;;;;;;0.23;100.00;99046.50;2090558;28;20198;-75
2022/02/06 01:36:23;;;;;;;19.90;17.73;;;;;;;0.18;100.00;99036.72;2090051;28;20233;-75
2022/02/06 01:37:33;;;;;;;18.70;17.02;;;;;;;0.23;100.00;99038.63;2090474;28;20290;-75
2022/02/06 01:38:50;;;;;;;18.17;16.45;;;;;;;0.24;100.00;99045.47;2090802;28;20633;-75
2022/02/06 01:41:17;;;;;;;19.27;17.23;;;;;;;0.25;100.00;99036.56;2089030;28;20199;-75
2022/02/06 01:42:27;;;;;;;21.15;17.10;;;;;;;0.30;100.00;99034.06;2090606;28;20210;-75
2022/02/06 01:43:39;;;;;;;18.02;16.40;;;;;;;0.36;100.00;99035.00;2090696;28;20183;-75
2022/02/06 01:44:53;;;;;;;19.00;17.15;;;;;;;0.40;100.00;99039.53;2091276;28;20508;-74
2022/02/06 02:02:20;;;;;;;18.60;16.75;;;;;;;0.75;100.00;98991.41;2090761;28;20226;-74
2022/02/06 02:03:32;;;;;;;18.13;16.63;;;;;;;0.81;100.00;98987.84;2091042;28;20170;-75
2022/02/06 02:04:48;;;;;;;17.55;16.25;;;;;;;0.85;100.00;98996.84;2090863;28;20186;-74
2022/02/06 02:06:17;;;;;;;18.42;16.67;;;;;;;0.88;100.00;98985.09;2089972;28;20271;-74
2022/02/06 02:07:45;;;;;;;17.45;16.15;;;;;;;0.95;100.00;98988.34;2090417;28;20268;-74
2022/02/06 02:11:55;;;;;;;19.65;16.73;;;;;;;1.01;100.00;98988.22;2091037;28;20175;-74
2022/02/06 02:13:22;;;;;;;17.85;16.25;;;;;;;1.03;100.00;98991.41;2090361;28;20199;-74
2022/02/06 02:15:05;;;;;;;17.95;16.40;;;;;;;1.09;100.00;98984.41;2090323;28;20231;-74
2022/02/06 02:18:03;;;;;;;18.92;17.23;;;;;;;1.23;100.00;98983.09;2090065;28;20608;-74
2022/02/06 02:22:23;;;;;;;18.08;16.38;;;;;;;1.19;100.00;98968.81;2079762;28;20227;-74
2022/02/06 02:23:49;;;;;;;19.13;17.10;;;;;;;1.17;100.00;98964.84;2090299;28;20206;-75
2022/02/06 02:25:29;;;;;;;17.63;16.10;;;;;;;1.17;100.00;98965.66;2085441;28;20206;-74
2022/02/06 02:26:50;;;;;;;18.60;17.08;;;;;;;1.19;100.00;98954.91;2090509;28;20172;-74
2022/02/06 02:28:06;;;;;;;18.45;16.85;;;;;;;1.23;100.00;98956.03;2089886;28;20664;-74
2022/02/06 02:30:52;;;;;;;16.90;15.48;;;;;;;1.20;100.00;98952.03;2090341;28;20167;-76
2022/02/06 02:43:07;;;;;;;16.92;15.50;;;;;;;1.29;100.00;98949.81;2090256;28;20221;-74
2022/02/06 02:45:52;;;;;;;16.65;15.25;;;;;;;1.31;100.00;98940.66;2090732;28;20178;-74
2022/02/06 02:46:57;;;;;;;17.23;15.73;;;;;;;1.32;100.00;98944.09;2090564;28;20641;-75
2022/02/06 02:48:03;;;;;;;17.67;16.27;;;;;;;1.31;100.00;98938.03;2090099;28;20294;-74
2022/02/06 02:49:07;;;;;;;18.70;17.08;;;;;;;1.35;100.00;98935.72;2089890;28;20566;-75
2022/02/06 02:50:14;;;;;;;17.35;16.00;;;;;;;1.35;100.00;98943.59;2090724;28;20260;-75
2022/02/06 02:51:18;;;;;;;17.23;15.90;;;;;;;1.33;100.00;98943.84;2089247;28;20233;-74
2022/02/06 02:52:38;;;;;;;18.35;16.75;;;;;;;1.28;100.00;98938.50;2081952;28;20190;-76
2022/02/06 02:53:45;;;;;;;18.00;16.50;;;;;;;1.31;100.00;98945.13;2084429;28;20203;-75
2022/02/06 02:54:53;;;;;;;18.10;16.42;;;;;;;1.29;100.00;98947.19;2089964;28;20589;-75
2022/02/06 02:56:08;;;;;;;17.70;16.08;;;;;;;1.31;100.00;98943.28;2082553;28;20239;-75
2022/02/06 02:57:21;;;;;;;17.92;16.55;;;;;;;1.32;100.00;98936.22;2090050;28;20179;-75
2022/02/06 02:58:42;;;;;;;17.50;15.82;;;;;;;1.36;100.00;98938.09;2089793;28;20227;-75
2022/02/06 02:59:57;;;;;;;17.90;16.35;;;;;;;1.36;100.00;98937.31;2089990;28;20197;-75
2022/02/06 03:01:07;;;;;;;18.00;16.40;;;;;;;1.35;100.00;98940.97;2090460;28;20197;-75
2022/02/06 03:02:11;;;;;;;17.48;15.98;;;;;;;1.35;100.00;98927.84;2090660;28;20361;-75
2022/02/06 03:03:16;;;;;;;17.55;16.25;;;;;;;1.34;100.00;98934.13;2090348;28;20654;-75
2022/02/06 03:04:18;;;;;;;16.92;15.52;;;;;;;1.32;100.00;98926.50;2090420;28;20193;-75
2022/02/06 03:05:19;;;;;;;17.98;16.23;;;;;;;1.28;100.00;98937.69;2090423;28;20278;-75
2022/02/06 03:06:27;;;;;;;17.50;15.90;;;;;;;1.28;100.00;98927.19;2090011;28;20288;-74
2022/02/06 03:07:29;;;;;;;17.70;16.20;;;;;;;1.28;100.00;98924.56;2090623;28;20262;-75
2022/02/06 03:08:34;;;;;;;17.13;15.75;;;;;;;1.27;100.00;98923.78;2090373;28;20187;-75
2022/02/06 03:09:42;;;;;;;17.23;15.75;;;;;;;1.32;100.00;98926.50;2090403;28;20198;-75
2022/02/06 03:10:46;;;;;;;17.45;16.15;;;;;;;1.35;100.00;98917.31;2089962;28;20205;-75
2022/02/06 03:11:49;;;;;;;17.88;15.57;;;;;;;1.33;100.00;98925.44;2090111;28;20565;-75
2022/02/06 03:12:54;;;;;;;17.30;15.93;;;;;;;1.30;100.00;98918.06;2090595;28;20244;-75
2022/02/06 03:14:03;;;;;;;17.05;15.75;;;;;;;1.32;100.00;98921.22;2089570;28;20227;-74
2022/02/06 03:15:20;;;;;;;17.65;16.05;;;;;;;1.35;100.00;98920.75;2089908;28;20247;-75
2022/02/06 03:16:26;;;;;;;17.75;16.30;;;;;;;1.36;100.00;98924.16;2089584;28;20569;-75
2022/02/06 03:17:36;;;;;;;17.92;16.35;;;;;;;1.36;100.00;98921.53;2089802;28;20195;-75
2022/02/06 03:18:45;;;;;;;17.13;15.85;;;;;;;1.35;100.00;98912.88;2090010;28;20604;-75
2022/02/06 03:19:54;;;;;;;18.08;16.40;;;;;;;1.37;100.00;98920.50;2089989;28;20293;-75
2022/02/06 03:20:59;;;;;;;17.35;15.88;;;;;;;1.35;100.00;98912.06;2082323;28;20196;-75
2022/02/06 03:22:06;;;;;;;17.73;16.17;;;;;;;1.36;100.00;98922.34;2089624;28;20195;-75
2022/02/06 03:23:11;;;;;;;17.88;16.30;;;;;;;1.38;100.00;98912.38;2090059;28;20629;-75
2022/02/06 03:24:24;;;;;;;18.10;16.48;;;;;;;1.37;100.00;98908.16;2090277;28;20234;-75
2022/02/06 03:25:28;;;;;;;17.35;15.90;;;;;;;1.41;100.00;98908.50;2090353;28;20198;-75
2022/02/06 03:26:30;;;;;;;18.10;16.60;;;;;;;1.43;100.00;98909.03;2090360;28;20645;-75
2022/02/06 03:27:34;;;;;;;17.35;16.05;;;;;;;1.46;100.00;98899.88;2090317;28;20186;-75
2022/02/06 03:28:38;;;;;;;17.90;16.20;;;;;;;1.46;100.00;98895.41;2090346;28;20186;-75
2022/02/06 03:29:45;;;;;;;17.05;15.60;;;;;;;1.48;100.00;98897.78;2089911;28;20207;-75
2022/02/06 03:30:48;;;;;;;17.88;16.27;;;;;;;1.48;100.00;98892.53;2082558;28;20202;-75
2022/02/06 03:31:51;;;;;;;17.88;16.38;;;;;;;1.48;100.00;98897.78;2089675;28;20723;-75
2022/02/06 03:32:53;;;;;;;18.27;16.70;;;;;;;1.50;100.00;98896.53;2090373;28;20281;-75
2022/02/06 03:33:59;;;;;;;17.27;15.82;;;;;;;1.54;100.00;98894.22;2090270;28;20191;-75
2022/02/06 03:35:00;;;;;;;18.15;16.60;;;;;;;1.53;100.00;98890.00;2090281;28;20563;-75
2022/02/06 03:36:05;;;;;;;18.37;16.30;;;;;;;1.54;100.00;98888.94;2089866;28;20191;-74
2022/02/06 03:37:13;;;;;;;17.30;15.90;;;;;;;1.54;100.00;98892.38;2090322;28;20175;-75
2022/02/06 03:38:18;;;;;;;18.00;16.27;;;;;;;1.54;100.00;98883.69;2089455;28;20201;-75
2022/02/06 03:39:23;;;;;;;18.10;16.45;;;;;;;1.60;100.00;98896.69;2089912;28;20195;-75
2022/02/06 03:40:29;;;;;;;17.20;16.02;;;;;;;1.58;100.00;98882.97;2089553;28;20210;-75
2022/02/06 03:41:49;;;;;;;19.90;16.42;;;;;;;1.58;100.00;98885.59;2089867;28;20222;-75
2022/02/06 03:43:01;;;;;;;17.10;15.73;;;;;;;1.67;100.00;98886.78;2089842;28;20677;-75
2022/02/06 03:44:09;;;;;;;17.60;16.33;;;;;;;1.66;100.00;98887.03;2090216;28;20187;-75
2022/02/06 03:45:19;;;;;;;18.40;16.70;;;;;;;1.68;100.00;98877.84;2089605;28;20187;-75
2022/02/06 03:46:28;;;;;;;18.05;16.60;;;;;;;1.73;100.00;98879.75;2089669;28;20202;-75
2022/02/06 03:47:45;;;;;;;18.35;16.73;;;;;;;1.73;100.00;98881.59;2089581;28;20195;-75
2022/02/06 03:48:53;;;;;;;17.70;16.30;;;;;;;1.72;100.00;98880.78;2089865;28;20590;-75
2022/02/06 03:49:56;;;;;;;17.58;15.75;;;;;;;1.72;100.00;98867.63;2090277;28;20233;-75
2022/02/06 03:51:04;;;;;;;17.52;15.98;;;;;;;1.67;100.00;98876.28;2089781;28;20187;-74
2022/02/06 03:52:08;;;;;;;17.92;16.35;;;;;;;1.66;100.00;98868.63;2089550;28;20194;-75
2022/02/06 03:53:18;;;;;;;22.15;16.58;;;;;;;1.66;100.00;98866.00;2089497;28;20550;-76
2022/02/06 03:54:23;;;;;;;18.00;16.40;;;;;;;1.65;100.00;98867.84;2090452;28;20194;-75
2022/02/06 03:55:29;;;;;;;17.90;16.30;;;;;;;1.66;100.00;98864.16;2089879;28;20202;-75
2022/02/06 03:56:33;;;;;;;19.17;17.40;;;;;;;1.68;100.00;98863.91;2090054;28;20638;-75
2022/02/06 03:57:37;;;;;;;17.70;16.27;;;;;;;1.69;100.00;98860.25;2091743;28;20533;-75
2022/02/06 03:58:40;;;;;;;17.45;15.80;;;;;;;1.67;100.00;98857.88;2091943;28;20249;-76
2022/02/06 03:59:47;;;;;;;18.60;16.65;;;;;;;1.68;100.00;98856.03;2091902;28;20664;-75
2022/02/06 04:00:50;;;;;;;18.20;16.60;;;;;;;1.67;100.00;98849.19;2091724;28;20708;-75
2022/02/06 04:01:53;;;;;;;18.10;16.50;;;;;;;1.68;100.00;98854.19;2091344;28;20194;-76
2022/02/06 04:03:00;;;;;;;18.17;16.55;;;;;;;1.72;100.00;98853.69;2091257;28;20608;-75
2022/02/06 04:04:05;;;;;;;17.65;16.05;;;;;;;1.77;100.00;98846.69;2091422;28;20609;-76
2022/02/06 04:05:07;;;;;;;17.73;16.33;;;;;;;1.78;100.00;98847.47;2091164;28;20256;-76
2022/02/06 04:06:12;;;;;;;17.55;16.15;;;;;;;1.81;100.00;98846.97;2091235;28;20190;-75
2022/02/06 04:07:19;;;;;;;17.02;15.73;;;;;;;1.80;100.00;98851.44;2091361;28;20199;-75
2022/02/06 04:08:21;;;;;;;17.27;15.57;;;;;;;1.81;100.00;98839.09;2083463;28;20215;-76
2022/02/06 04:09:32;;;;;;;17.08;15.63;;;;;;;1.88;100.00;98834.44;2091163;28;20266;-76
2022/02/06 04:10:44;;;;;;;17.05;15.65;;;;;;;1.90;100.00;98829.72;2091752;28;20179;-75
2022/02/06 04:11:50;;;;;;;17.15;15.75;;;;;;;1.91;100.00;98826.06;2090926;28;20322;-76
2022/02/06 04:12:52;;;;;;;16.90;15.40;;;;;;;1.90;100.00;98824.47;2091131;28;20219;-76
2022/02/06 04:14:07;;;;;;;16.73;15.27;;;;;;;1.92;100.00;98819.78;2091497;28;20219;-75
2022/02/06 04:15:20;;;;;;;17.50;16.00;;;;;;;2.03;100.00;98825.94;2091662;28;20193;-75
2022/02/06 04:16:37;;;;;;;18.17;16.50;;;;;;;2.04;100.00;98817.00;2091951;28;20167;-75
2022/02/06 04:17:47;;;;;;;17.15;15.52;;;;;;;2.02;100.00;98817.25;2091744;28;20636;-75
2022/02/06 04:18:52;;;;;;;17.58;16.08;;;;;;;2.01;100.00;98817.50;2091331;28;20207;-75
2022/02/06 04:19:57;;;;;;;18.38;16.88;;;;;;;2.03;100.00;98818.84;2091061;28;20629;-74
2022/02/06 04:20:59;;;;;;;17.15;15.75;;;;;;;2.06;100.00;98823.59;2090447;28;20645;-74
2022/02/06 04:22:02;;;;;;;17.48;16.05;;;;;;;2.04;100.00;98817.81;2083237;28;20299;-75
2022/02/06 04:23:05;;;;;;;17.00;15.77;;;;;;;2.04;100.00;98812.53;2091002;28;20202;-75
2022/02/06 04:24:08;;;;;;;17.25;15.65;;;;;;;2.03;100.00;98810.94;2091841;28;20593;-75
2022/02/06 04:25:13;;;;;;;17.40;15.90;;;;;;;2.12;100.00;98806.84;2091724;28;20198;-76
2022/02/06 04:26:15;;;;;;;17.88;16.48;;;;;;;2.13;100.00;98802.38;2090716;28;20199;-76
2022/02/06 04:27:16;;;;;;;17.15;15.80;;;;;;;2.10;100.00;98808.94;2091057;28;20191;-75
2022/02/06 04:28:19;;;;;;;17.58;16.17;;;;;;;2.06;100.00;98813.09;2091625;28;20234;-75
2022/02/06 04:29:23;;;;;;;18.50;17.00;;;;;;;2.10;100.00;98803.66;2091693;28;20191;-76
2022/02/06 04:30:26;;;;;;;17.50;16.10;;;;;;;2.13;100.00;98803.16;2091449;28;20675;-75
2022/02/06 04:31:27;;;;;;;17.25;15.93;;;;;;;2.12;100.00;98798.94;2091567;28;20653;-75
2022/02/06 04:32:32;;;;;;;17.63;16.13;;;;;;;2.11;100.00;98804.47;2091603;28;20602;-75
2022/02/06 04:33:33;;;;;;;17.98;16.38;;;;;;;2.10;100.00;98800.25;2091536;28;20225;-75
2022/02/06 04:34:37;;;;;;;18.40;16.80;;;;;;;2.09;100.00;98804.72;2091684;28;20216;-76
2022/02/06 04:35:40;;;;;;;18.10;16.60;;;;;;;2.15;100.00;98814.22;2091522;28;20233;-75
2022/02/06 04:36:54;;;;;;;18.13;16.58;;;;;;;2.18;100.00;98799.81;2091281;28;20226;-75
2022/02/06 04:38:09;;;;;;;17.98;16.50;;;;;;;2.16;100.00;98800.03;2090835;28;20266;-76
2022/02/06 04:39:40;;;;;;;17.58;16.20;;;;;;;2.18;100.00;98792.69;2091104;28;20264;-75
2022/02/06 04:42:11;;;;;;;18.10;16.63;;;;;;;2.20;100.00;98789.81;2091170;28;20218;-75
2022/02/06 04:43:39;;;;;;;17.83;16.30;;;;;;;2.20;100.00;98789.81;2091279;28;20190;-76
2022/02/06 04:46:51;;;;;;;18.10;16.40;;;;;;;2.33;100.00;98789.41;2088735;28;20207;-76
2022/02/06 04:49:42;;;;;;;19.65;15.85;;;;;;;2.21;100.00;98781.66;2085618;28;20204;-75
2022/02/06 04:53:52;;;;;;;18.45;16.67;;;;;;;2.27;100.00;98772.00;2091434;28;20203;-75
2022/02/06 05:14:18;;;;;;;16.58;15.20;;;;;;;2.58;100.00;98767.78;2083881;28;20571;-75
2022/02/06 05:15:39;;;;;;;16.88;15.68;;;;;;;2.54;100.00;98775.41;2090547;28;20223;-75
2022/02/06 05:17:02;;;;;;;17.05;15.73;;;;;;;2.50;100.00;98763.75;2090891;28;20180;-75
2022/02/06 05:18:32;;;;;;;17.35;15.93;;;;;;;2.61;100.00;98753.34;2091275;28;20531;-75
2022/02/06 05:22:38;;;;;;;15.95;14.85;;;;;;;2.43;100.00;98757.94;2091028;28;20175;-76
2022/02/06 05:24:04;;;;;;;17.08;15.50;;;;;;;2.42;100.00;98766.06;2091181;28;20186;-75
2022/02/06 05:28:24;;;;;;;17.77;16.52;;;;;;;2.44;100.00;98754.25;2114617;27;20511;-74
2022/02/06 05:29:34;;;;;;;17.83;16.52;;;;;;;2.39;100.00;98758.66;2114048;28;20209;-76
2022/02/06 05:30:46;;;;;;;16.35;15.25;;;;;;;2.34;100.00;98759.41;2114377;28;20738;-73
2022/02/06 05:32:01;;;;;;;16.73;15.35;;;;;;;2.31;100.00;98751.22;2114045;28;20197;-73
2022/02/06 05:33:03;;;;;;;17.40;16.00;;;;;;;2.34;100.00;98748.09;2114579;28;20177;-76
2022/02/06 05:34:09;;;;;;;17.58;15.77;;;;;;;2.41;100.00;98756.56;2114446;28;20192;-74
2022/02/06 05:35:10;;;;;;;16.63;15.32;;;;;;;2.42;100.00;98745.78;2114543;28;20212;-74
2022/02/06 05:36:12;;;;;;;16.87;15.47;;;;;;;2.40;100.00;98755.78;2105443;27;20247;-74
2022/02/06 05:37:13;;;;;;;17.23;15.93;;;;;;;2.34;100.00;98769.16;2088692;28;20529;-73
2022/02/06 05:38:19;;;;;;;17.20;15.52;;;;;;;2.21;100.00;98747.47;2089468;28;20286;-73
2022/02/06 05:39:20;;;;;;;17.70;16.20;;;;;;;2.12;100.00;98751.59;2089237;28;20198;-74
2022/02/06 05:40:24;;;;;;;17.17;15.57;;;;;;;2.16;100.00;98743.97;2088493;28;20209;-74
2022/02/06 05:41:29;;;;;;;17.95;16.65;;;;;;;2.07;100.00;98738.34;2088603;28;20202;-74
2022/02/06 05:42:30;;;;;;;17.38;16.02;;;;;;;2.02;100.00;98748.06;2089352;28;20648;-75
2022/02/06 05:43:37;;;;;;;17.63;15.87;;;;;;;2.07;100.00;98733.09;2089465;28;20546;-75
2022/02/06 05:44:42;;;;;;;18.02;16.55;;;;;;;2.01;100.00;98738.59;2088830;28;20207;-75
2022/02/06 05:45:47;;;;;;;17.63;16.42;;;;;;;2.00;100.00;98737.78;2088404;28;20209;-75
2022/02/06 05:46:48;;;;;;;16.63;15.57;;;;;;;1.96;100.00;98741.94;2088727;28;20195;-74
2022/02/06 05:47:51;;;;;;;17.87;16.17;;;;;;;1.98;100.00;98727.50;2089133;28;20215;-74
2022/02/06 05:48:57;;;;;;;16.80;15.57;;;;;;;2.03;100.00;98737.28;2089227;28;20669;-75
2022/02/06 05:49:58;;;;;;;18.05;16.55;;;;;;;2.02;100.00;98740.16;2089202;28;20206;-75
2022/02/06 05:51:02;;;;;;;18.00;16.00;;;;;;;1.98;100.00;98731.97;2087804;28;20295;-74
2022/02/06 05:52:06;;;;;;;18.65;16.85;;;;;;;1.94;100.00;98733.50;2088558;28;20301;-75
2022/02/06 05:53:11;;;;;;;18.30;16.63;;;;;;;1.87;100.00;98722.38;2080490;28;20215;-75
2022/02/06 05:54:14;;;;;;;17.25;16.15;;;;;;;1.82;100.00;98728.38;2080507;28;20204;-75
2022/02/06 05:55:19;;;;;;;17.55;16.05;;;;;;;1.82;100.00;98723.09;2088432;28;20229;-74
2022/02/06 05:56:24;;;;;;;17.50;16.05;;;;;;;1.82;100.00;98730.19;2088803;28;20546;-75
2022/02/06 05:57:25;;;;;;;17.80;16.50;;;;;;;1.80;100.00;98727.81;2088342;28;20720;-75
2022/02/06 05:58:29;;;;;;;18.00;16.60;;;;;;;1.78;100.00;98734.38;2088571;28;20282;-75
2022/02/06 05:59:38;;;;;;;17.88;16.40;;;;;;;1.79;100.00;98725.44;2088431;28;20194;-75
2022/02/06 06:00:40;;;;;;;17.33;16.02;;;;;;;1.77;100.00;98719.66;2088809;28;20179;-75
2022/02/06 06:01:43;;;;;;;17.70;16.27;;;;;;;1.77;100.00;98709.91;2088928;28;20569;-75
2022/02/06 06:02:45;;;;;;;17.98;16.50;;;;;;;1.75;100.00;98727.00;2089058;28;20661;-74
2022/02/06 06:03:50;;;;;;;17.52;16.08;;;;;;;1.69;100.00;98716.41;2088293;28;20570;-73
2022/02/06 06:04:54;;;;;;;17.40;16.10;;;;;;;1.69;100.00;98721.66;2080906;28;20553;-73
2022/02/06 06:05:56;;;;;;;17.52;16.23;;;;;;;1.73;100.00;98718.53;2087978;28;20549;-73
2022/02/06 06:07:02;;;;;;;17.10;15.80;;;;;;;1.74;100.00;98720.13;2088384;28;20207;-73
2022/02/06 06:08:05;;;;;;;17.52;15.95;;;;;;;1.73;100.00;98713.28;2088483;28;20673;-74
2022/02/06 06:09:06;;;;;;;17.80;16.25;;;;;;;1.71;100.00;98713.53;2089033;28;20203;-74
2022/02/06 06:10:12;;;;;;;16.73;15.53;;;;;;;1.67;100.00;98710.59;2089135;28;20187;-75
2022/02/06 06:11:16;;;;;;;17.38;15.85;;;;;;;1.71;100.00;98710.91;2087969;28;20449;-75
2022/02/06 06:12:18;;;;;;;17.60;16.08;;;;;;;1.70;100.00;98704.84;2088410;28;20625;-75
2022/02/06 06:13:23;;;;;;;18.17;16.77;;;;;;;1.76;100.00;98710.19;2089010;28;20298;-75
2022/02/06 06:14:30;;;;;;;18.08;16.67;;;;;;;1.78;100.00;98708.09;2087955;28;20203;-75
2022/02/06 06:15:38;;;;;;;18.33;17.02;;;;;;;1.76;100.00;98702.28;2080987;28;20250;-75
2022/02/06 06:16:43;;;;;;;18.05;16.65;;;;;;;1.74;100.00;98712.22;2088606;28;20171;-75
2022/02/06 06:17:47;;;;;;;17.63;16.13;;;;;;;1.77;100.00;98696.78;2088265;28;20218;-74
2022/02/06 06:18:49;;;;;;;18.35;16.65;;;;;;;1.75;100.00;98698.06;2088330;28;20661;-75
2022/02/06 06:19:52;;;;;;;17.50;15.98;;;;;;;1.74;100.00;98706.97;2089014;28;20199;-74
2022/02/06 06:21:00;;;;;;;18.58;16.92;;;;;;;1.80;100.00;98695.47;2087784;28;20195;-73
2022/02/06 06:22:07;;;;;;;18.23;16.55;;;;;;;1.80;100.00;98706.78;2088410;28;20572;-74
2022/02/06 06:23:12;;;;;;;19.10;17.48;;;;;;;1.84;100.00;98686.06;2088963;28;20179;-74
2022/02/06 06:24:19;;;;;;;18.65;17.25;;;;;;;1.83;100.00;98705.53;2088859;28;20195;-74
2022/02/06 06:25:20;;;;;;;18.73;17.13;;;;;;;1.86;100.00;98699.75;2088908;28;20657;-75
2022/02/06 06:26:25;;;;;;;18.30;16.75;;;;;;;1.85;100.00;98695.53;2089037;28;20642;-74